Newark Liberty International Airport Newark US
ICAO: KEWR
IATA: EWR
Category: Large
Scheduled Services: Yes

Elevation: 18 ft
TransAlt. 18000 ft.

Airport Communications:
NEW YORK APP:127.6
ATIS:115.7
CLNC DEL:118.85
NEW YORK DEP:119.2
GND:121.8
TWR:118.3
UNICOM:122.95

KEWR Zoom In..

If you have problems with the map follow the link
https://www.worldairports.se/pages/airport.php?
ICAO=KEWR

Runways:

(A) RW 04L length 11000 ft width 150 ft
ILS 110.75 / hdg 39

(B) RW 04R length 10000 ft width 150 ft
ILS 108.70 / hdg 39

(C) RW 11 length 6800 ft width 150 ft
ILS 109.15 / hdg 108

(D) RW 22L length 10000 ft width 150 ft
ILS 108.70 / hdg 219

(E) RW 22R length 11000 ft width 150 ft
ILS 110.75 / hdg 219

(F) RW 29 length 6800 ft width 150 ft
---- / hdg 288

Location; KEWR
Day. 19 / Time. 12.51 Zulu
* Altimeter: 30.14
* Temperature: 06° c. 42.8°f.
* Wind from: 250° Speed 05 kn.
Dewpoint: 04° c.
Visibility: 9 Statute Miles.
Clouds: Broken 700 ft.
Clouds: Overcast 1500 ft.

KEWR 191251Z 25005KT 9SM BKN007 OVC015 06/04 A3014 RMK AO2 SLP206 T00610039


Wind From 250°
Speed 05 kn.

 
 
jpsmedia.com for Web Design worldairports.se 2018   terms of use